createdAt,value
2023-08-19T00:01:48.077Z,97341.13
2023-08-19T00:04:18.436Z,97339.78
2023-08-19T00:06:50.054Z,97363.83
2023-08-19T00:09:20.491Z,97358.38
2023-08-19T00:11:50.951Z,97358.89
2023-08-19T00:14:26.055Z,97359.19
2023-08-19T00:16:56.395Z,97358.06
2023-08-19T00:19:26.597Z,97356.16
2023-08-19T00:21:56.819Z,97353.12
2023-08-19T00:24:27.067Z,97355.03
2023-08-19T00:26:58.975Z,97349.55
2023-08-19T00:29:29.369Z,97356.65
2023-08-19T00:31:59.771Z,97354.67
2023-08-19T00:34:30.165Z,97335.83
2023-08-19T00:37:00.464Z,97339.94
2023-08-19T00:39:30.741Z,97341.31
2023-08-19T00:42:01.020Z,97338.60
2023-08-19T00:44:32.035Z,97343.02
2023-08-19T00:47:03.240Z,97343.02
2023-08-19T00:49:33.314Z,97343.59
2023-08-19T00:52:03.748Z,97344.67
2023-08-19T00:54:34.391Z,97349.33
2023-08-19T00:57:04.682Z,97366.55
2023-08-19T00:59:34.837Z,97373.65
2023-08-19T01:02:05.051Z,97374.75
2023-08-19T01:04:35.296Z,97370.64
2023-08-19T01:07:19.940Z,97379.63
2023-08-19T01:10:07.687Z,97373.63
2023-08-19T01:12:58.860Z,97372.22
2023-08-19T01:15:34.293Z,97374.88
2023-08-19T01:18:05.118Z,97356.55
2023-08-19T01:20:36.516Z,97361.19
2023-08-19T01:23:11.587Z,97359.57
2023-08-19T01:25:43.112Z,97364.23
2023-08-19T01:28:13.570Z,97365.59
2023-08-19T01:30:45.241Z,97368.12
2023-08-19T01:33:15.604Z,97369.20
2023-08-19T01:35:48.657Z,97372.50
2023-08-19T01:38:39.341Z,97376.88
2023-08-19T01:41:11.846Z,97375.81
2023-08-19T01:43:42.117Z,97392.73
2023-08-19T01:46:12.539Z,97395.20
2023-08-19T01:48:42.757Z,97392.20
2023-08-19T01:51:13.006Z,97389.71
2023-08-19T01:53:43.632Z,97387.79
2023-08-19T01:56:16.908Z,97394.80
2023-08-19T01:58:50.725Z,97396.67
2023-08-19T02:01:21.260Z,97378.37
2023-08-19T02:03:51.542Z,97377.27
2023-08-19T02:06:21.857Z,97384.10
2023-08-19T02:08:52.332Z,97379.47
2023-08-19T02:11:22.595Z,97382.22
2023-08-19T02:13:53.014Z,97382.24
2023-08-19T02:16:23.063Z,97388.54
2023-08-19T02:19:13.373Z,97390.48
2023-08-19T02:21:43.558Z,97392.41
2023-08-19T02:24:13.908Z,97395.16
2023-08-19T02:26:43.995Z,97403.10
2023-08-19T02:29:14.126Z,97400.64
2023-08-19T02:31:44.765Z,97401.75
2023-08-19T02:34:15.155Z,97409.11
2023-08-19T02:36:47.786Z,97409.67
2023-08-19T02:39:39.360Z,97412.41
2023-08-19T02:42:10.671Z,97414.89
2023-08-19T02:44:41.368Z,97417.89
2023-08-19T02:47:12.637Z,97417.64
2023-08-19T02:49:42.825Z,97420.08
2023-08-19T02:52:13.175Z,97429.09
2023-08-19T02:54:43.468Z,97430.20
2023-08-19T02:57:13.679Z,97427.48
2023-08-19T02:59:43.944Z,97437.61
2023-08-19T03:02:14.336Z,97438.69
2023-08-19T03:04:44.925Z,97440.61
2023-08-19T03:07:15.311Z,97441.17
2023-08-19T03:09:46.849Z,97448.81
2023-08-19T03:12:17.068Z,97444.42
2023-08-19T03:14:47.326Z,97443.91
2023-08-19T03:17:17.757Z,97441.45
2023-08-19T03:19:48.064Z,97448.84
2023-08-19T03:22:18.533Z,97447.18
2023-08-19T03:24:48.921Z,97452.94
2023-08-19T03:27:19.244Z,97451.02
2023-08-19T03:29:49.702Z,97452.39
2023-08-19T03:32:20.054Z,97448.56
2023-08-19T03:34:50.631Z,97446.94
2023-08-19T03:37:20.808Z,97452.12
2023-08-19T03:39:51.177Z,97452.12
2023-08-19T03:42:21.600Z,97454.59
2023-08-19T03:44:51.977Z,97456.23
2023-08-19T03:47:22.283Z,97448.29
2023-08-19T03:49:53.883Z,97448.58
2023-08-19T03:52:25.747Z,97445.59
2023-08-19T03:54:56.080Z,97450.80
2023-08-19T03:57:26.403Z,97448.33
2023-08-19T03:59:56.743Z,97449.44
2023-08-19T04:02:27.240Z,97446.97
2023-08-19T04:05:08.854Z,97444.53
2023-08-19T04:07:40.102Z,97449.70
2023-08-19T04:10:11.564Z,97450.00
2023-08-19T04:12:43.705Z,97448.63
2023-08-19T04:15:14.254Z,97446.72
2023-08-19T04:17:45.024Z,97445.61
2023-08-19T04:20:15.698Z,97446.43
2023-08-19T04:22:46.745Z,97440.70
2023-08-19T04:25:17.206Z,97440.96
2023-08-19T04:28:07.683Z,97440.41
2023-08-19T04:30:38.013Z,97441.52
2023-08-19T04:33:08.621Z,97437.98
2023-08-19T04:35:39.793Z,97431.14
2023-08-19T04:38:10.542Z,97432.77
2023-08-19T04:41:01.552Z,97438.53
2023-08-19T04:43:31.873Z,97432.77
2023-08-19T04:46:02.107Z,97437.13
2023-08-19T04:48:32.213Z,97436.32
2023-08-19T04:51:02.820Z,97437.14
2023-08-19T04:53:33.577Z,97433.59
2023-08-19T04:56:06.646Z,97430.04
2023-08-19T04:58:36.970Z,97437.43
2023-08-19T05:01:07.277Z,97439.06
2023-08-19T05:03:37.718Z,97429.23
2023-08-19T05:06:08.099Z,97437.14
2023-08-19T05:08:38.522Z,97435.22
2023-08-19T05:11:08.804Z,97432.48
2023-08-19T05:13:38.917Z,97439.06
2023-08-19T05:16:11.588Z,97432.48
2023-08-19T05:18:41.542Z,97436.33
2023-08-19T05:21:12.714Z,97454.37
2023-08-19T05:23:43.653Z,97469.70
2023-08-19T05:26:14.915Z,97462.30
2023-08-19T05:28:45.495Z,97464.77
2023-08-19T05:31:15.869Z,97447.80
2023-08-19T05:33:46.319Z,97449.45
2023-08-19T05:36:16.836Z,97443.43
2023-08-19T05:38:47.108Z,97442.06
2023-08-19T05:41:17.349Z,97437.97
2023-08-19T05:43:47.560Z,97446.98
2023-08-19T05:46:17.893Z,97451.64
2023-08-19T05:48:48.222Z,97448.91
2023-08-19T05:51:18.440Z,97448.63
2023-08-19T05:53:48.693Z,97448.63
2023-08-19T05:56:18.871Z,97447.55
2023-08-19T05:58:49.081Z,97440.98
2023-08-19T06:01:20.145Z,97437.98
2023-08-19T06:03:51.564Z,97433.33
2023-08-19T06:06:21.876Z,97438.51
2023-08-19T06:08:51.901Z,97441.80
2023-08-19T06:11:22.283Z,97444.80
2023-08-19T06:13:52.541Z,97447.82
2023-08-19T06:16:22.815Z,97466.41
2023-08-19T06:18:53.218Z,97463.94
2023-08-19T06:21:23.513Z,97466.41
2023-08-19T06:23:54.335Z,97462.84
2023-08-19T06:26:25.078Z,97445.34
2023-08-19T06:28:55.453Z,97443.97
2023-08-19T06:31:46.233Z,97445.89
2023-08-19T06:34:36.902Z,97449.99
2023-08-19T06:37:07.769Z,97445.34
2023-08-19T06:39:37.973Z,97452.45
2023-08-19T06:42:08.780Z,97448.91
2023-08-19T06:44:38.844Z,97448.09
2023-08-19T06:47:29.528Z,97452.72
2023-08-19T06:50:00.190Z,97456.00
2023-08-19T06:52:31.098Z,97455.20
2023-08-19T06:55:03.003Z,97451.09
2023-08-19T06:57:35.181Z,97453.57
2023-08-19T07:00:12.379Z,97454.91
2023-08-19T07:02:43.262Z,97450.28
2023-08-19T07:05:20.664Z,97439.90
2023-08-19T07:07:54.146Z,97445.34
2023-08-19T07:10:23.743Z,97456.28
2023-08-19T07:12:54.397Z,97458.49
2023-08-19T07:15:25.255Z,97480.08
2023-08-19T07:17:57.298Z,97478.45
2023-08-19T07:20:27.716Z,97477.89
2023-08-19T07:22:58.104Z,97475.69
2023-08-19T07:25:28.559Z,97458.19
2023-08-19T07:27:59.017Z,97451.06
2023-08-19T07:30:29.979Z,97457.89
2023-08-19T07:33:00.376Z,97461.73
2023-08-19T07:35:30.827Z,97455.16
2023-08-19T07:38:01.400Z,97460.12
2023-08-19T07:40:31.787Z,97458.20
2023-08-19T07:43:02.259Z,97457.91
2023-08-19T07:45:32.602Z,97457.91
2023-08-19T07:48:02.947Z,97456.29
2023-08-19T07:50:33.312Z,97458.19
2023-08-19T07:53:03.938Z,97460.11
2023-08-19T07:55:34.207Z,97464.77
2023-08-19T07:58:04.438Z,97456.56
2023-08-19T08:00:34.619Z,97456.83
2023-08-19T08:03:04.950Z,97458.75
2023-08-19T08:05:38.317Z,97452.47
2023-08-19T08:08:09.002Z,97456.83
2023-08-19T08:10:39.318Z,97454.91
2023-08-19T08:13:09.659Z,97452.73
2023-08-19T08:15:40.281Z,97448.36
2023-08-19T08:18:10.602Z,97456.83
2023-08-19T08:20:41.546Z,97451.36
2023-08-19T08:23:12.205Z,97456.84
2023-08-19T08:25:43.049Z,97465.30
2023-08-19T08:28:14.210Z,97453.55
2023-08-19T08:30:45.564Z,97479.27
2023-08-19T08:33:16.246Z,97478.45
2023-08-19T08:35:52.110Z,97488.02
2023-08-19T08:38:22.603Z,97490.72
2023-08-19T08:40:52.820Z,97468.56
2023-08-19T08:43:23.183Z,97468.53
2023-08-19T08:45:53.469Z,97469.08
2023-08-19T08:48:24.112Z,97471.00
2023-08-19T08:50:54.662Z,97472.11
2023-08-19T08:53:28.974Z,97475.14
2023-08-19T08:55:59.241Z,97475.67
2023-08-19T08:58:29.528Z,97474.86
2023-08-19T09:01:19.973Z,97485.80
2023-08-19T09:06:40.193Z,97487.17
2023-08-19T09:09:11.831Z,97482.27
2023-08-19T09:11:46.042Z,97487.44
2023-08-19T09:14:47.339Z,97466.39
2023-08-19T09:17:18.511Z,97483.08
2023-08-19T09:19:48.372Z,97489.62
2023-08-19T09:22:23.760Z,97496.20
2023-08-19T09:24:55.141Z,97496.20
2023-08-19T09:27:32.919Z,97492.37
2023-08-19T09:30:04.832Z,97500.87
2023-08-19T09:32:37.584Z,97509.89
2023-08-19T09:35:09.602Z,97506.86
2023-08-19T09:37:40.286Z,97513.17
2023-08-19T09:40:12.812Z,97512.89
2023-08-19T09:42:43.505Z,97515.07
2023-08-19T09:45:23.198Z,97518.09
2023-08-19T09:47:53.774Z,97521.39
2023-08-19T09:50:25.441Z,97523.28
2023-08-19T09:52:59.422Z,97520.28
2023-08-19T09:55:34.092Z,97519.47
2023-08-19T09:58:27.168Z,97518.36
2023-08-19T10:00:58.989Z,97526.31
2023-08-19T10:03:29.306Z,97520.55
2023-08-19T10:05:59.631Z,97519.47
2023-08-19T10:08:30.326Z,97540.25
2023-08-19T10:11:00.535Z,97537.25
2023-08-19T10:13:31.608Z,97542.14
2023-08-19T10:16:01.997Z,97547.05
2023-08-19T10:18:33.893Z,97524.87
2023-08-19T10:21:06.396Z,97518.59
2023-08-19T10:23:36.846Z,97527.34
2023-08-19T10:26:10.528Z,97524.05
2023-08-19T10:28:41.671Z,97527.91
2023-08-19T10:31:12.685Z,97529.55
2023-08-19T10:33:46.413Z,97529.55
2023-08-19T10:36:20.268Z,97533.39
2023-08-19T10:38:51.376Z,97530.92
2023-08-19T10:41:31.147Z,97532.84
2023-08-19T10:44:12.145Z,97541.31
2023-08-19T10:46:43.237Z,97541.58
2023-08-19T10:49:17.834Z,97546.23
2023-08-19T10:51:52.493Z,97552.27
2023-08-19T10:54:34.380Z,97553.37
2023-08-19T10:57:18.549Z,97563.20
2023-08-19T10:59:49.983Z,97561.28
2023-08-19T11:04:50.809Z,97557.47
2023-08-19T11:07:21.377Z,97562.66
2023-08-19T11:09:51.910Z,97561.84
2023-08-19T11:12:24.115Z,97562.66
2023-08-19T11:14:56.896Z,97577.95
2023-08-19T11:17:34.941Z,97568.69
2023-08-19T11:20:15.451Z,97569.50
2023-08-19T11:22:48.892Z,97564.84
2023-08-19T11:25:20.661Z,97570.05
2023-08-19T11:27:53.551Z,97572.23
2023-08-19T11:30:23.018Z,97571.14
2023-08-19T11:32:53.346Z,97573.88
2023-08-19T11:35:23.855Z,97573.88
2023-08-19T11:37:54.154Z,97582.08
2023-08-19T11:40:29.943Z,97563.45
2023-08-19T11:42:56.352Z,97589.47
2023-08-19T11:45:27.915Z,97588.10
2023-08-19T11:47:58.180Z,97593.31
2023-08-19T11:50:29.212Z,97591.10
2023-08-19T11:52:59.607Z,97596.57
2023-08-19T11:55:50.405Z,97591.10
2023-08-19T11:58:20.686Z,97594.13
2023-08-19T12:00:50.869Z,97601.23
2023-08-19T12:03:21.360Z,97598.23
2023-08-19T12:05:51.797Z,97605.34
2023-08-19T12:08:34.676Z,97609.98
2023-08-19T12:11:05.005Z,97606.70
2023-08-19T12:13:35.871Z,97608.07
2023-08-19T12:16:06.574Z,97616.27
2023-08-19T12:18:37.210Z,97614.91
2023-08-19T12:23:57.427Z,97615.20
2023-08-19T12:26:28.015Z,97616.58
2023-08-19T12:28:57.893Z,97622.56
2023-08-19T12:31:28.973Z,97622.04
2023-08-19T12:33:59.364Z,97628.88
2023-08-19T12:36:29.634Z,97631.33
2023-08-19T12:38:59.826Z,97631.88
2023-08-19T12:41:30.050Z,97635.98
2023-08-19T12:44:00.210Z,97640.90
2023-08-19T12:46:33.072Z,97644.45
2023-08-19T12:49:04.838Z,97647.19
2023-08-19T12:51:35.346Z,97650.77
2023-08-19T12:56:55.608Z,97652.13
2023-08-19T12:59:47.033Z,97649.67
2023-08-19T13:02:17.329Z,97670.44
2023-08-19T13:04:48.617Z,97666.32
2023-08-19T13:07:19.927Z,97655.88
2023-08-19T13:09:50.688Z,97650.11
2023-08-19T13:12:21.792Z,97660.20
2023-08-19T13:14:57.049Z,97681.27
2023-08-19T13:17:27.675Z,97684.27
2023-08-19T13:19:59.281Z,97686.89
2023-08-19T13:22:29.839Z,97692.56
2023-08-19T13:25:00.034Z,97676.36
2023-08-19T13:27:30.400Z,97683.73
2023-08-19T13:30:00.579Z,97688.94
2023-08-19T13:32:31.188Z,97689.77
2023-08-19T13:35:01.440Z,97692.52
2023-08-19T13:37:31.753Z,97712.39
2023-08-19T13:40:01.981Z,97712.39
2023-08-19T13:42:32.533Z,97709.72
2023-08-19T13:45:02.863Z,97711.88
2023-08-19T13:47:33.613Z,97720.38
2023-08-19T13:50:23.376Z,97719.55
2023-08-19T13:52:53.773Z,97743.89
2023-08-19T13:58:13.539Z,97725.52
2023-08-19T14:00:44.454Z,97735.08
2023-08-19T14:03:14.727Z,97735.66
2023-08-19T14:05:45.051Z,97737.29
2023-08-19T14:08:15.204Z,97735.94
2023-08-19T14:10:51.484Z,97751.80
2023-08-19T14:13:24.345Z,97756.16
2023-08-19T14:15:54.723Z,97734.23
2023-08-19T14:18:25.048Z,97736.94
2023-08-19T14:20:55.238Z,97734.75
2023-08-19T14:23:25.574Z,97735.88
2023-08-19T14:25:55.717Z,97740.51
2023-08-19T14:28:25.949Z,97739.71
2023-08-19T14:30:56.152Z,97757.49
2023-08-19T14:33:26.251Z,97758.83
2023-08-19T14:35:56.484Z,97741.08
2023-08-19T14:38:26.682Z,97741.34
2023-08-19T14:40:57.218Z,97748.72
2023-08-19T14:43:27.685Z,97740.83
2023-08-19T14:45:58.398Z,97752.80
2023-08-19T14:48:28.748Z,97739.46
2023-08-19T14:50:59.172Z,97742.71
2023-08-19T14:53:29.475Z,97745.45
2023-08-19T14:55:59.820Z,97743.83
2023-08-19T14:58:30.283Z,97768.69
2023-08-19T15:01:20.916Z,97773.63
2023-08-19T15:03:51.482Z,97747.93
2023-08-19T15:06:22.286Z,97754.76
2023-08-19T15:08:53.389Z,97759.67
2023-08-19T15:11:23.406Z,97753.14
2023-08-19T15:13:53.525Z,97775.54
2023-08-19T15:16:44.112Z,97765.44
2023-08-19T15:22:09.327Z,97759.67
2023-08-19T15:24:39.511Z,97755.03
2023-08-19T15:27:10.460Z,97780.98
2023-08-19T15:29:40.708Z,97776.06
2023-08-19T15:32:12.187Z,97771.09
2023-08-19T15:34:42.433Z,97774.30
2023-08-19T15:37:14.056Z,97750.49
2023-08-19T15:39:47.255Z,97760.05
2023-08-19T15:42:20.407Z,97752.95
2023-08-19T15:44:50.876Z,97748.60
2023-08-19T15:47:22.502Z,97770.99
2023-08-19T15:49:53.149Z,97765.02
2023-08-19T15:52:23.985Z,97742.31
2023-08-19T15:54:55.567Z,97740.16
2023-08-19T15:57:26.068Z,97746.73
2023-08-19T15:59:56.289Z,97766.94
2023-08-19T16:02:27.148Z,97764.78
2023-08-19T16:04:57.315Z,97748.39
2023-08-19T16:07:35.682Z,97745.93
2023-08-19T16:10:06.603Z,97751.14
2023-08-19T16:12:36.829Z,97751.41
2023-08-19T16:15:07.233Z,97767.56
2023-08-19T16:17:37.715Z,97744.61
2023-08-19T16:20:09.440Z,97740.51
2023-08-19T16:22:39.633Z,97733.16
2023-08-19T16:25:29.092Z,97739.98
2023-08-19T16:27:59.293Z,97758.86
2023-08-19T16:30:29.830Z,97755.33
2023-08-19T16:35:50.575Z,97730.73
2023-08-19T16:38:21.478Z,97735.11
2023-08-19T16:40:53.950Z,97731.82
2023-08-19T16:43:25.093Z,97757.25
2023-08-19T16:46:00.107Z,97735.94
2023-08-19T16:48:30.365Z,97734.88
2023-08-19T16:51:00.806Z,97739.48
2023-08-19T16:53:31.342Z,97740.06
2023-08-19T16:56:02.172Z,97763.85
2023-08-19T16:58:32.603Z,97761.69
2023-08-19T17:01:03.738Z,97732.41
2023-08-19T17:03:33.783Z,97741.20
2023-08-19T17:06:04.781Z,97738.73
2023-08-19T17:08:35.195Z,97736.30
2023-08-19T17:11:05.624Z,97756.52
2023-08-19T17:13:36.017Z,97754.90
2023-08-19T17:16:06.720Z,97739.31
2023-08-19T17:18:37.184Z,97737.14
2023-08-19T17:21:07.606Z,97731.39
2023-08-19T17:23:37.788Z,97733.88
2023-08-19T17:26:07.997Z,97718.84
2023-08-19T17:28:38.304Z,97737.44
2023-08-19T17:31:08.950Z,97713.94
2023-08-19T17:33:39.146Z,97712.30
2023-08-19T17:36:09.497Z,97704.36
2023-08-19T17:38:39.786Z,97710.12
2023-08-19T17:41:10.011Z,97723.51
2023-08-19T17:43:40.121Z,97721.34
2023-08-19T17:46:10.621Z,97724.61
2023-08-19T17:48:41.007Z,97717.17
2023-08-19T17:51:11.260Z,97716.28
2023-08-19T17:53:43.212Z,97691.13
2023-08-19T17:56:34.089Z,97683.73
2023-08-19T17:59:05.662Z,97681.81
2023-08-19T18:01:36.270Z,97681.58
2023-08-19T18:04:06.933Z,97687.06
2023-08-19T18:06:37.388Z,97704.56
2023-08-19T18:09:08.513Z,97706.76
2023-08-19T18:11:38.911Z,97684.08
2023-08-19T18:14:09.047Z,97685.47
2023-08-19T18:16:39.821Z,97677.83
2023-08-19T18:19:11.369Z,97683.86
2023-08-19T18:21:41.832Z,97698.08
2023-08-19T18:24:12.267Z,97693.98
2023-08-19T18:26:42.621Z,97693.13
2023-08-19T18:29:12.929Z,97690.89
2023-08-19T18:31:43.186Z,97691.39
2023-08-19T18:34:13.301Z,97674.14
2023-08-19T18:36:44.333Z,97667.84
2023-08-19T18:39:14.780Z,97665.93
2023-08-19T18:41:44.803Z,97660.75
2023-08-19T18:44:14.909Z,97659.42
2023-08-19T18:46:45.169Z,97679.95
2023-08-19T18:49:15.530Z,97679.42
2023-08-19T18:51:45.809Z,97675.30
2023-08-19T18:54:17.683Z,97676.09
2023-08-19T18:56:48.104Z,97674.94
2023-08-19T18:59:19.364Z,97655.53
2023-08-19T19:01:49.568Z,97656.35
2023-08-19T19:04:19.949Z,97655.28
2023-08-19T19:07:10.595Z,97653.39
2023-08-19T19:09:40.820Z,97666.53
2023-08-19T19:12:11.253Z,97672.55
2023-08-19T19:14:41.599Z,97668.75
2023-08-19T19:17:13.185Z,97670.08
2023-08-19T19:19:43.606Z,97669.21
2023-08-19T19:22:13.949Z,97639.94
2023-08-19T19:24:49.212Z,97631.20
2023-08-19T19:30:10.741Z,97630.70
2023-08-19T19:32:41.089Z,97646.31
2023-08-19T19:35:19.429Z,97646.08
2023-08-19T19:37:49.591Z,97643.59
2023-08-19T19:40:19.791Z,97618.72
2023-08-19T19:42:50.100Z,97625.27
2023-08-19T19:45:20.414Z,97619.82
2023-08-19T19:47:50.842Z,97643.36
2023-08-19T19:50:21.100Z,97635.71
2023-08-19T19:52:51.383Z,97633.55
2023-08-19T19:55:23.060Z,97635.17
2023-08-19T19:57:54.323Z,97614.66
2023-08-19T20:00:26.728Z,97588.38
2023-08-19T20:02:57.546Z,97597.96
2023-08-19T20:05:27.948Z,97592.81
2023-08-19T20:07:58.283Z,97621.25
2023-08-19T20:10:28.723Z,97619.89
2023-08-19T20:12:59.154Z,97617.71
2023-08-19T20:15:30.582Z,97605.64
2023-08-19T20:18:00.956Z,97616.27
2023-08-19T20:20:31.512Z,97608.03
2023-08-19T20:23:01.979Z,97608.28
2023-08-19T20:25:32.124Z,97598.14
2023-08-19T20:28:02.286Z,97602.75
2023-08-19T20:30:37.617Z,97585.78
2023-08-19T20:33:04.692Z,97584.98
2023-08-19T20:35:36.467Z,97578.17
2023-08-19T20:38:07.635Z,97575.47
2023-08-19T20:40:38.370Z,97568.13
2023-08-19T20:43:08.772Z,97588.09
2023-08-19T20:45:39.010Z,97587.84
2023-08-19T20:48:09.585Z,97582.12
2023-08-19T20:50:40.093Z,97578.83
2023-08-19T20:53:10.594Z,97580.45
2023-08-19T20:55:42.303Z,97573.34
2023-08-19T20:58:12.287Z,97578.48
2023-08-19T21:00:42.688Z,97582.84
2023-08-19T21:03:13.140Z,97582.28
2023-08-19T21:05:44.134Z,97556.89
2023-08-19T21:08:14.253Z,97560.72
2023-08-19T21:10:44.405Z,97565.39
2023-08-19T21:13:14.904Z,97553.13
2023-08-19T21:15:45.389Z,97574.72
2023-08-19T21:18:17.840Z,97570.66
2023-08-19T21:20:49.479Z,97570.67
2023-08-19T21:23:20.058Z,97570.13
2023-08-19T21:25:50.250Z,97569.05
2023-08-19T21:28:20.437Z,97573.95
2023-08-19T21:30:58.076Z,97549.91
2023-08-19T21:33:28.990Z,97551.55
2023-08-19T21:35:59.211Z,97557.30
2023-08-19T21:38:29.375Z,97568.52
2023-08-19T21:40:59.480Z,97572.38
2023-08-19T21:43:29.697Z,97575.69
2023-08-19T21:46:03.619Z,97574.31
2023-08-19T21:48:37.036Z,97572.66
2023-08-19T21:51:07.339Z,97570.76
2023-08-19T21:53:37.920Z,97571.31
2023-08-19T21:56:08.185Z,97569.64
2023-08-19T21:58:38.394Z,97566.91
2023-08-19T22:01:08.530Z,97570.73
2023-08-19T22:03:38.720Z,97565.82
2023-08-19T22:06:09.042Z,97564.97
2023-08-19T22:08:39.318Z,97572.36
2023-08-19T22:11:09.666Z,97561.71
2023-08-19T22:13:39.879Z,97562.78
2023-08-19T22:16:10.321Z,97565.25
2023-08-19T22:18:40.664Z,97564.98
2023-08-19T22:21:11.023Z,97567.72
2023-08-19T22:23:41.532Z,97568.53
2023-08-19T22:26:11.687Z,97548.59
2023-08-19T22:28:41.921Z,97545.33
2023-08-19T22:31:12.503Z,97542.86
2023-08-19T22:33:44.323Z,97568.03
2023-08-19T22:36:15.001Z,97564.25
2023-08-19T22:38:45.515Z,97569.75
2023-08-19T22:41:26.671Z,97581.23
2023-08-19T22:43:58.233Z,97575.50
2023-08-19T22:46:29.472Z,97585.33
2023-08-19T22:49:00.281Z,97580.96
2023-08-19T22:51:30.664Z,97580.15
2023-08-19T22:54:01.919Z,97580.41
2023-08-19T22:56:32.026Z,97584.23
2023-08-19T22:59:02.346Z,97580.69
2023-08-19T23:01:32.748Z,97578.21
2023-08-19T23:06:52.679Z,97571.66
2023-08-19T23:09:24.256Z,97578.50
2023-08-19T23:11:54.644Z,97579.02
2023-08-19T23:14:24.772Z,97547.58
2023-08-19T23:16:55.246Z,97549.25
2023-08-19T23:19:46.587Z,97547.34
2023-08-19T23:25:07.183Z,97569.77
2023-08-19T23:27:37.643Z,97573.34
2023-08-19T23:30:08.570Z,97568.97
2023-08-19T23:32:38.963Z,97566.49
2023-08-19T23:35:09.477Z,97555.28
2023-08-19T23:37:39.804Z,97558.57
2023-08-19T23:40:11.206Z,97556.94
2023-08-19T23:42:41.760Z,97564.59
2023-08-19T23:45:13.259Z,97561.55
2023-08-19T23:47:44.054Z,97561.58
2023-08-19T23:50:15.199Z,97568.66
2023-08-19T23:52:46.137Z,97559.64
2023-08-19T23:55:20.590Z,97561.27
2023-08-19T23:57:51.355Z,97562.63
